sensor_id;sensor_type;location;lat;lon;timestamp;P1;durP1;ratioP1;P2;durP2;ratioP2
43248;SDS011;29216;51.248;6.808;2024-03-02T00:00:23;3.92;;;2.15;;
43248;SDS011;29216;51.248;6.808;2024-03-02T00:02:50;2.92;;;2.35;;
43248;SDS011;29216;51.248;6.808;2024-03-02T00:05:17;2.85;;;2.47;;
43248;SDS011;29216;51.248;6.808;2024-03-02T00:07:56;3.95;;;2.30;;
43248;SDS011;29216;51.248;6.808;2024-03-02T00:10:25;2.60;;;2.10;;
43248;SDS011;29216;51.248;6.808;2024-03-02T00:12:55;3.15;;;2.38;;
43248;SDS011;29216;51.248;6.808;2024-03-02T00:17:53;5.20;;;1.98;;
43248;SDS011;29216;51.248;6.808;2024-03-02T00:20:20;2.13;;;1.92;;
43248;SDS011;29216;51.248;6.808;2024-03-02T00:22:47;2.78;;;2.20;;
43248;SDS011;29216;51.248;6.808;2024-03-02T00:25:13;2.97;;;2.20;;
43248;SDS011;29216;51.248;6.808;2024-03-02T00:27:39;3.42;;;2.10;;
43248;SDS011;29216;51.248;6.808;2024-03-02T00:32:50;3.63;;;2.30;;
43248;SDS011;29216;51.248;6.808;2024-03-02T00:35:18;5.35;;;2.30;;
43248;SDS011;29216;51.248;6.808;2024-03-02T00:37:45;4.05;;;2.17;;
43248;SDS011;29216;51.248;6.808;2024-03-02T00:40:11;3.55;;;2.15;;
43248;SDS011;29216;51.248;6.808;2024-03-02T00:42:38;7.05;;;3.22;;
43248;SDS011;29216;51.248;6.808;2024-03-02T00:45:07;2.28;;;2.05;;
43248;SDS011;29216;51.248;6.808;2024-03-02T00:47:37;4.03;;;2.30;;
43248;SDS011;29216;51.248;6.808;2024-03-02T00:50:04;3.45;;;2.47;;
43248;SDS011;29216;51.248;6.808;2024-03-02T00:52:31;2.55;;;2.33;;
43248;SDS011;29216;51.248;6.808;2024-03-02T00:54:58;3.22;;;2.20;;
43248;SDS011;29216;51.248;6.808;2024-03-02T00:57:24;2.60;;;2.10;;
43248;SDS011;29216;51.248;6.808;2024-03-02T00:59:51;2.65;;;2.20;;
43248;SDS011;29216;51.248;6.808;2024-03-02T01:02:17;3.63;;;1.90;;
43248;SDS011;29216;51.248;6.808;2024-03-02T01:04:45;2.60;;;2.10;;
43248;SDS011;29216;51.248;6.808;2024-03-02T01:07:11;2.97;;;2.08;;
43248;SDS011;29216;51.248;6.808;2024-03-02T01:09:37;4.57;;;2.17;;
43248;SDS011;29216;51.248;6.808;2024-03-02T01:12:03;2.50;;;2.22;;
43248;SDS011;29216;51.248;6.808;2024-03-02T01:14:29;3.35;;;2.47;;
43248;SDS011;29216;51.248;6.808;2024-03-02T01:16:55;2.72;;;2.17;;
43248;SDS011;29216;51.248;6.808;2024-03-02T01:19:21;2.95;;;2.10;;
43248;SDS011;29216;51.248;6.808;2024-03-02T01:21:47;3.58;;;2.03;;
43248;SDS011;29216;51.248;6.808;2024-03-02T01:24:15;2.65;;;2.10;;
43248;SDS011;29216;51.248;6.808;2024-03-02T01:26:41;4.35;;;2.33;;
43248;SDS011;29216;51.248;6.808;2024-03-02T01:29:07;2.53;;;2.08;;
43248;SDS011;29216;51.248;6.808;2024-03-02T01:31:33;2.28;;;2.08;;
43248;SDS011;29216;51.248;6.808;2024-03-02T01:33:59;3.03;;;2.00;;
43248;SDS011;29216;51.248;6.808;2024-03-02T01:36:25;3.60;;;2.00;;
43248;SDS011;29216;51.248;6.808;2024-03-02T01:38:51;2.08;;;1.88;;
43248;SDS011;29216;51.248;6.808;2024-03-02T01:41:17;2.63;;;2.00;;
43248;SDS011;29216;51.248;6.808;2024-03-02T01:43:43;2.38;;;2.10;;
43248;SDS011;29216;51.248;6.808;2024-03-02T01:46:09;4.45;;;2.42;;
43248;SDS011;29216;51.248;6.808;2024-03-02T01:48:35;4.03;;;2.22;;
43248;SDS011;29216;51.248;6.808;2024-03-02T01:51:01;3.15;;;1.88;;
43248;SDS011;29216;51.248;6.808;2024-03-02T01:53:27;3.33;;;2.15;;
43248;SDS011;29216;51.248;6.808;2024-03-02T01:55:53;4.80;;;2.03;;
43248;SDS011;29216;51.248;6.808;2024-03-02T01:58:19;2.38;;;1.80;;
43248;SDS011;29216;51.248;6.808;2024-03-02T02:00:45;5.30;;;2.00;;
43248;SDS011;29216;51.248;6.808;2024-03-02T02:03:12;2.83;;;1.90;;
43248;SDS011;29216;51.248;6.808;2024-03-02T02:05:38;3.53;;;1.90;;
43248;SDS011;29216;51.248;6.808;2024-03-02T02:08:04;3.92;;;1.88;;
43248;SDS011;29216;51.248;6.808;2024-03-02T02:10:30;3.45;;;1.63;;
43248;SDS011;29216;51.248;6.808;2024-03-02T02:12:57;2.17;;;1.98;;
43248;SDS011;29216;51.248;6.808;2024-03-02T02:15:23;2.08;;;1.90;;
43248;SDS011;29216;51.248;6.808;2024-03-02T02:17:49;3.80;;;2.17;;
43248;SDS011;29216;51.248;6.808;2024-03-02T02:20:15;2.88;;;1.95;;
43248;SDS011;29216;51.248;6.808;2024-03-02T02:22:52;3.35;;;1.92;;
43248;SDS011;29216;51.248;6.808;2024-03-02T02:25:18;2.88;;;1.70;;
43248;SDS011;29216;51.248;6.808;2024-03-02T02:27:44;2.67;;;1.83;;
43248;SDS011;29216;51.248;6.808;2024-03-02T02:30:10;2.15;;;1.80;;
43248;SDS011;29216;51.248;6.808;2024-03-02T02:32:36;2.33;;;1.95;;
43248;SDS011;29216;51.248;6.808;2024-03-02T02:35:02;2.75;;;1.90;;
43248;SDS011;29216;51.248;6.808;2024-03-02T02:37:28;4.88;;;1.90;;
43248;SDS011;29216;51.248;6.808;2024-03-02T02:39:54;2.92;;;2.25;;
43248;SDS011;29216;51.248;6.808;2024-03-02T02:42:20;2.63;;;2.03;;
43248;SDS011;29216;51.248;6.808;2024-03-02T02:44:46;3.00;;;1.98;;
43248;SDS011;29216;51.248;6.808;2024-03-02T02:47:12;2.20;;;2.00;;
43248;SDS011;29216;51.248;6.808;2024-03-02T02:49:38;2.42;;;2.00;;
43248;SDS011;29216;51.248;6.808;2024-03-02T02:52:04;3.25;;;1.80;;
43248;SDS011;29216;51.248;6.808;2024-03-02T02:54:30;5.60;;;2.47;;
43248;SDS011;29216;51.248;6.808;2024-03-02T02:56:56;2.92;;;1.77;;
43248;SDS011;29216;51.248;6.808;2024-03-02T02:59:22;3.65;;;1.83;;
43248;SDS011;29216;51.248;6.808;2024-03-02T03:01:48;3.05;;;1.80;;
43248;SDS011;29216;51.248;6.808;2024-03-02T03:04:14;2.55;;;1.95;;
43248;SDS011;29216;51.248;6.808;2024-03-02T03:06:40;3.13;;;1.92;;
43248;SDS011;29216;51.248;6.808;2024-03-02T03:09:06;3.63;;;1.85;;
43248;SDS011;29216;51.248;6.808;2024-03-02T03:11:32;2.83;;;2.20;;
43248;SDS011;29216;51.248;6.808;2024-03-02T03:13:58;3.08;;;1.70;;
43248;SDS011;29216;51.248;6.808;2024-03-02T03:16:25;2.30;;;2.10;;
43248;SDS011;29216;51.248;6.808;2024-03-02T03:18:51;2.70;;;1.77;;
43248;SDS011;29216;51.248;6.808;2024-03-02T03:21:18;2.63;;;1.83;;
43248;SDS011;29216;51.248;6.808;2024-03-02T03:23:44;2.63;;;2.03;;
43248;SDS011;29216;51.248;6.808;2024-03-02T03:26:10;2.47;;;1.70;;
43248;SDS011;29216;51.248;6.808;2024-03-02T03:28:36;2.88;;;2.13;;
43248;SDS011;29216;51.248;6.808;2024-03-02T03:31:02;2.67;;;1.80;;
43248;SDS011;29216;51.248;6.808;2024-03-02T03:33:28;2.53;;;1.73;;
43248;SDS011;29216;51.248;6.808;2024-03-02T03:35:54;3.20;;;2.15;;
43248;SDS011;29216;51.248;6.808;2024-03-02T03:38:20;3.13;;;1.80;;
43248;SDS011;29216;51.248;6.808;2024-03-02T03:40:46;5.18;;;2.13;;
43248;SDS011;29216;51.248;6.808;2024-03-02T03:43:12;3.00;;;1.92;;
43248;SDS011;29216;51.248;6.808;2024-03-02T03:45:38;2.60;;;2.00;;
43248;SDS011;29216;51.248;6.808;2024-03-02T03:48:04;4.80;;;2.13;;
43248;SDS011;29216;51.248;6.808;2024-03-02T03:50:30;3.17;;;2.05;;
43248;SDS011;29216;51.248;6.808;2024-03-02T03:52:56;3.72;;;1.98;;
43248;SDS011;29216;51.248;6.808;2024-03-02T03:55:22;2.15;;;1.88;;
43248;SDS011;29216;51.248;6.808;2024-03-02T03:57:49;2.65;;;1.90;;
43248;SDS011;29216;51.248;6.808;2024-03-02T04:00:15;2.45;;;1.98;;
43248;SDS011;29216;51.248;6.808;2024-03-02T04:02:41;2.70;;;2.00;;
43248;SDS011;29216;51.248;6.808;2024-03-02T04:05:07;2.30;;;1.92;;
43248;SDS011;29216;51.248;6.808;2024-03-02T04:07:36;2.78;;;2.10;;
43248;SDS011;29216;51.248;6.808;2024-03-02T04:10:08;2.40;;;1.75;;
43248;SDS011;29216;51.248;6.808;2024-03-02T04:12:35;6.72;;;2.20;;
43248;SDS011;29216;51.248;6.808;2024-03-02T04:15:02;2.58;;;1.67;;
43248;SDS011;29216;51.248;6.808;2024-03-02T04:17:29;2.45;;;2.00;;
43248;SDS011;29216;51.248;6.808;2024-03-02T04:19:54;2.72;;;2.00;;
43248;SDS011;29216;51.248;6.808;2024-03-02T04:22:20;3.20;;;2.35;;
43248;SDS011;29216;51.248;6.808;2024-03-02T04:24:46;4.20;;;2.13;;
43248;SDS011;29216;51.248;6.808;2024-03-02T04:27:12;3.08;;;2.00;;
43248;SDS011;29216;51.248;6.808;2024-03-02T04:29:38;4.32;;;2.10;;
43248;SDS011;29216;51.248;6.808;2024-03-02T04:32:04;2.10;;;1.90;;
43248;SDS011;29216;51.248;6.808;2024-03-02T04:34:30;2.58;;;1.90;;
43248;SDS011;29216;51.248;6.808;2024-03-02T04:36:56;3.38;;;2.17;;
43248;SDS011;29216;51.248;6.808;2024-03-02T04:39:22;6.18;;;1.92;;
43248;SDS011;29216;51.248;6.808;2024-03-02T04:41:49;3.08;;;2.10;;
43248;SDS011;29216;51.248;6.808;2024-03-02T04:44:15;3.10;;;1.90;;
43248;SDS011;29216;51.248;6.808;2024-03-02T04:46:41;2.70;;;2.03;;
43248;SDS011;29216;51.248;6.808;2024-03-02T04:49:07;4.72;;;2.10;;
43248;SDS011;29216;51.248;6.808;2024-03-02T04:51:33;2.20;;;2.00;;
43248;SDS011;29216;51.248;6.808;2024-03-02T04:53:59;2.80;;;2.10;;
43248;SDS011;29216;51.248;6.808;2024-03-02T04:56:25;3.90;;;2.30;;
43248;SDS011;29216;51.248;6.808;2024-03-02T04:58:57;4.65;;;2.05;;
43248;SDS011;29216;51.248;6.808;2024-03-02T05:01:23;3.67;;;2.03;;
43248;SDS011;29216;51.248;6.808;2024-03-02T05:03:49;2.78;;;2.00;;
43248;SDS011;29216;51.248;6.808;2024-03-02T05:06:15;2.08;;;1.90;;
43248;SDS011;29216;51.248;6.808;2024-03-02T05:08:41;3.05;;;2.38;;
43248;SDS011;29216;51.248;6.808;2024-03-02T05:11:09;3.88;;;2.40;;
43248;SDS011;29216;51.248;6.808;2024-03-02T05:13:56;3.20;;;2.17;;
43248;SDS011;29216;51.248;6.808;2024-03-02T05:16:22;3.20;;;2.00;;
43248;SDS011;29216;51.248;6.808;2024-03-02T05:18:48;2.20;;;1.95;;
43248;SDS011;29216;51.248;6.808;2024-03-02T05:21:13;3.10;;;1.85;;
43248;SDS011;29216;51.248;6.808;2024-03-02T05:23:39;3.83;;;2.20;;
43248;SDS011;29216;51.248;6.808;2024-03-02T05:26:05;3.45;;;2.10;;
43248;SDS011;29216;51.248;6.808;2024-03-02T05:28:31;2.40;;;2.15;;
43248;SDS011;29216;51.248;6.808;2024-03-02T05:30:57;2.95;;;2.20;;
43248;SDS011;29216;51.248;6.808;2024-03-02T05:33:23;3.42;;;2.13;;
43248;SDS011;29216;51.248;6.808;2024-03-02T05:35:49;5.13;;;2.30;;
43248;SDS011;29216;51.248;6.808;2024-03-02T05:38:15;4.07;;;2.22;;
43248;SDS011;29216;51.248;6.808;2024-03-02T05:40:41;2.85;;;2.08;;
43248;SDS011;29216;51.248;6.808;2024-03-02T05:43:07;3.30;;;2.17;;
43248;SDS011;29216;51.248;6.808;2024-03-02T05:45:33;5.35;;;2.83;;
43248;SDS011;29216;51.248;6.808;2024-03-02T05:47:59;2.97;;;2.30;;
43248;SDS011;29216;51.248;6.808;2024-03-02T05:50:25;3.88;;;3.20;;
43248;SDS011;29216;51.248;6.808;2024-03-02T05:52:51;5.45;;;2.30;;
43248;SDS011;29216;51.248;6.808;2024-03-02T05:55:17;4.88;;;2.35;;
43248;SDS011;29216;51.248;6.808;2024-03-02T05:57:43;3.22;;;1.98;;
43248;SDS011;29216;51.248;6.808;2024-03-02T06:00:09;7.20;;;2.30;;
43248;SDS011;29216;51.248;6.808;2024-03-02T06:02:38;2.63;;;2.10;;
43248;SDS011;29216;51.248;6.808;2024-03-02T06:05:04;4.18;;;2.38;;
43248;SDS011;29216;51.248;6.808;2024-03-02T06:07:32;3.67;;;2.47;;
43248;SDS011;29216;51.248;6.808;2024-03-02T06:09:58;3.95;;;2.40;;
43248;SDS011;29216;51.248;6.808;2024-03-02T06:12:24;3.20;;;2.28;;
43248;SDS011;29216;51.248;6.808;2024-03-02T06:14:50;5.38;;;2.45;;
43248;SDS011;29216;51.248;6.808;2024-03-02T06:17:16;4.40;;;2.90;;
43248;SDS011;29216;51.248;6.808;2024-03-02T06:19:42;4.25;;;2.30;;
43248;SDS011;29216;51.248;6.808;2024-03-02T06:22:08;3.42;;;2.10;;
43248;SDS011;29216;51.248;6.808;2024-03-02T06:24:35;4.47;;;2.67;;
43248;SDS011;29216;51.248;6.808;2024-03-02T06:27:01;5.38;;;2.30;;
43248;SDS011;29216;51.248;6.808;2024-03-02T06:29:27;3.92;;;2.33;;
43248;SDS011;29216;51.248;6.808;2024-03-02T06:31:53;3.10;;;2.20;;
43248;SDS011;29216;51.248;6.808;2024-03-02T06:34:19;3.45;;;2.33;;
43248;SDS011;29216;51.248;6.808;2024-03-02T06:36:45;4.40;;;2.78;;
43248;SDS011;29216;51.248;6.808;2024-03-02T06:39:11;3.65;;;2.63;;
43248;SDS011;29216;51.248;6.808;2024-03-02T06:41:37;3.72;;;2.40;;
43248;SDS011;29216;51.248;6.808;2024-03-02T06:44:03;3.97;;;2.30;;
43248;SDS011;29216;51.248;6.808;2024-03-02T06:46:30;3.90;;;2.33;;
43248;SDS011;29216;51.248;6.808;2024-03-02T06:48:56;4.28;;;2.40;;
43248;SDS011;29216;51.248;6.808;2024-03-02T06:51:22;4.88;;;2.30;;
43248;SDS011;29216;51.248;6.808;2024-03-02T06:53:48;3.33;;;2.20;;
43248;SDS011;29216;51.248;6.808;2024-03-02T06:56:14;3.50;;;2.40;;
43248;SDS011;29216;51.248;6.808;2024-03-02T06:58:40;12.13;;;2.72;;
43248;SDS011;29216;51.248;6.808;2024-03-02T07:01:07;7.38;;;2.50;;
43248;SDS011;29216;51.248;6.808;2024-03-02T07:03:34;3.35;;;2.28;;
43248;SDS011;29216;51.248;6.808;2024-03-02T07:06:00;5.30;;;2.60;;
43248;SDS011;29216;51.248;6.808;2024-03-02T07:08:26;2.80;;;2.10;;
43248;SDS011;29216;51.248;6.808;2024-03-02T07:10:52;4.40;;;2.50;;
43248;SDS011;29216;51.248;6.808;2024-03-02T07:13:18;6.78;;;2.70;;
43248;SDS011;29216;51.248;6.808;2024-03-02T07:15:45;8.93;;;3.03;;
43248;SDS011;29216;51.248;6.808;2024-03-02T07:18:29;3.03;;;2.20;;
43248;SDS011;29216;51.248;6.808;2024-03-02T07:20:59;4.90;;;2.45;;
43248;SDS011;29216;51.248;6.808;2024-03-02T07:23:26;3.20;;;2.33;;
43248;SDS011;29216;51.248;6.808;2024-03-02T07:25:52;3.85;;;2.47;;
43248;SDS011;29216;51.248;6.808;2024-03-02T07:28:22;4.18;;;2.53;;
43248;SDS011;29216;51.248;6.808;2024-03-02T07:31:00;4.05;;;2.55;;
43248;SDS011;29216;51.248;6.808;2024-03-02T07:33:27;4.63;;;2.53;;
43248;SDS011;29216;51.248;6.808;2024-03-02T07:35:56;4.50;;;2.65;;
43248;SDS011;29216;51.248;6.808;2024-03-02T07:38:22;5.45;;;2.80;;
43248;SDS011;29216;51.248;6.808;2024-03-02T07:40:48;3.65;;;2.55;;
43248;SDS011;29216;51.248;6.808;2024-03-02T07:43:16;3.28;;;2.47;;
43248;SDS011;29216;51.248;6.808;2024-03-02T07:45:42;4.05;;;2.50;;
43248;SDS011;29216;51.248;6.808;2024-03-02T07:48:08;3.80;;;2.63;;
43248;SDS011;29216;51.248;6.808;2024-03-02T07:50:34;5.30;;;2.70;;
43248;SDS011;29216;51.248;6.808;2024-03-02T07:53:00;3.15;;;2.30;;
43248;SDS011;29216;51.248;6.808;2024-03-02T07:55:26;6.57;;;2.30;;
43248;SDS011;29216;51.248;6.808;2024-03-02T07:57:52;2.97;;;2.30;;
43248;SDS011;29216;51.248;6.808;2024-03-02T08:00:18;5.97;;;2.38;;
43248;SDS011;29216;51.248;6.808;2024-03-02T08:02:44;3.83;;;2.20;;
43248;SDS011;29216;51.248;6.808;2024-03-02T08:05:11;4.05;;;2.28;;
43248;SDS011;29216;51.248;6.808;2024-03-02T08:07:36;4.93;;;2.58;;
43248;SDS011;29216;51.248;6.808;2024-03-02T08:10:03;4.40;;;2.38;;
43248;SDS011;29216;51.248;6.808;2024-03-02T08:12:29;4.18;;;2.30;;
43248;SDS011;29216;51.248;6.808;2024-03-02T08:14:55;4.13;;;2.50;;
43248;SDS011;29216;51.248;6.808;2024-03-02T08:17:21;4.82;;;2.40;;
43248;SDS011;29216;51.248;6.808;2024-03-02T08:19:47;3.67;;;2.50;;
43248;SDS011;29216;51.248;6.808;2024-03-02T08:22:14;4.18;;;2.05;;
43248;SDS011;29216;51.248;6.808;2024-03-02T08:24:40;2.63;;;2.30;;
43248;SDS011;29216;51.248;6.808;2024-03-02T08:27:06;3.05;;;2.45;;
43248;SDS011;29216;51.248;6.808;2024-03-02T08:29:32;4.03;;;2.33;;
43248;SDS011;29216;51.248;6.808;2024-03-02T08:31:58;3.72;;;2.45;;
43248;SDS011;29216;51.248;6.808;2024-03-02T08:34:24;6.75;;;2.60;;
43248;SDS011;29216;51.248;6.808;2024-03-02T08:36:50;3.40;;;2.20;;
43248;SDS011;29216;51.248;6.808;2024-03-02T08:39:16;4.53;;;2.42;;
43248;SDS011;29216;51.248;6.808;2024-03-02T08:41:44;3.17;;;2.30;;
43248;SDS011;29216;51.248;6.808;2024-03-02T08:44:11;4.30;;;2.30;;
43248;SDS011;29216;51.248;6.808;2024-03-02T08:46:37;4.32;;;2.55;;
43248;SDS011;29216;51.248;6.808;2024-03-02T08:49:04;2.80;;;2.38;;
43248;SDS011;29216;51.248;6.808;2024-03-02T08:51:30;4.63;;;2.50;;
43248;SDS011;29216;51.248;6.808;2024-03-02T08:53:56;3.55;;;2.28;;
43248;SDS011;29216;51.248;6.808;2024-03-02T08:56:23;3.70;;;2.50;;
43248;SDS011;29216;51.248;6.808;2024-03-02T08:58:49;6.53;;;2.22;;
43248;SDS011;29216;51.248;6.808;2024-03-02T09:01:16;3.67;;;2.20;;
43248;SDS011;29216;51.248;6.808;2024-03-02T09:03:42;3.78;;;2.22;;
43248;SDS011;29216;51.248;6.808;2024-03-02T09:06:11;3.83;;;2.30;;
43248;SDS011;29216;51.248;6.808;2024-03-02T09:08:38;3.50;;;2.30;;
43248;SDS011;29216;51.248;6.808;2024-03-02T09:11:05;3.80;;;2.20;;
43248;SDS011;29216;51.248;6.808;2024-03-02T09:13:31;3.90;;;2.28;;
43248;SDS011;29216;51.248;6.808;2024-03-02T09:15:57;3.65;;;2.05;;
43248;SDS011;29216;51.248;6.808;2024-03-02T09:18:23;9.63;;;2.10;;
43248;SDS011;29216;51.248;6.808;2024-03-02T09:20:49;3.45;;;2.15;;
43248;SDS011;29216;51.248;6.808;2024-03-02T09:23:15;3.80;;;2.13;;
43248;SDS011;29216;51.248;6.808;2024-03-02T09:25:41;2.17;;;1.90;;
43248;SDS011;29216;51.248;6.808;2024-03-02T09:28:07;3.33;;;2.17;;
43248;SDS011;29216;51.248;6.808;2024-03-02T09:30:33;3.25;;;2.28;;
43248;SDS011;29216;51.248;6.808;2024-03-02T09:32:59;3.95;;;2.22;;
43248;SDS011;29216;51.248;6.808;2024-03-02T09:35:25;3.30;;;2.40;;
43248;SDS011;29216;51.248;6.808;2024-03-02T09:37:51;4.20;;;2.40;;
43248;SDS011;29216;51.248;6.808;2024-03-02T09:40:17;5.63;;;2.78;;
43248;SDS011;29216;51.248;6.808;2024-03-02T09:42:43;3.97;;;2.20;;
43248;SDS011;29216;51.248;6.808;2024-03-02T09:45:16;3.38;;;2.13;;
43248;SDS011;29216;51.248;6.808;2024-03-02T09:47:42;1.90;;;1.58;;
43248;SDS011;29216;51.248;6.808;2024-03-02T09:50:08;4.82;;;1.50;;
43248;SDS011;29216;51.248;6.808;2024-03-02T09:52:34;3.95;;;1.65;;
43248;SDS011;29216;51.248;6.808;2024-03-02T09:55:02;3.10;;;1.80;;
43248;SDS011;29216;51.248;6.808;2024-03-02T09:57:28;3.35;;;1.70;;
43248;SDS011;29216;51.248;6.808;2024-03-02T09:59:54;2.65;;;1.58;;
43248;SDS011;29216;51.248;6.808;2024-03-02T10:02:20;2.97;;;1.55;;
43248;SDS011;29216;51.248;6.808;2024-03-02T10:04:47;2.42;;;1.70;;
43248;SDS011;29216;51.248;6.808;2024-03-02T10:07:15;2.40;;;2.00;;
43248;SDS011;29216;51.248;6.808;2024-03-02T10:09:42;2.42;;;1.80;;
43248;SDS011;29216;51.248;6.808;2024-03-02T10:12:09;2.83;;;1.60;;
43248;SDS011;29216;51.248;6.808;2024-03-02T10:14:36;2.45;;;1.63;;
43248;SDS011;29216;51.248;6.808;2024-03-02T10:17:03;4.40;;;1.88;;
43248;SDS011;29216;51.248;6.808;2024-03-02T10:19:29;3.35;;;1.77;;
43248;SDS011;29216;51.248;6.808;2024-03-02T10:21:59;3.20;;;1.85;;
43248;SDS011;29216;51.248;6.808;2024-03-02T10:24:25;3.00;;;1.70;;
43248;SDS011;29216;51.248;6.808;2024-03-02T10:26:52;2.42;;;1.50;;
43248;SDS011;29216;51.248;6.808;2024-03-02T10:29:19;4.53;;;1.73;;
43248;SDS011;29216;51.248;6.808;2024-03-02T10:31:45;3.70;;;2.00;;
43248;SDS011;29216;51.248;6.808;2024-03-02T10:34:12;2.42;;;1.63;;
43248;SDS011;29216;51.248;6.808;2024-03-02T10:36:41;4.15;;;1.60;;
43248;SDS011;29216;51.248;6.808;2024-03-02T10:39:08;3.97;;;1.65;;
43248;SDS011;29216;51.248;6.808;2024-03-02T10:41:35;2.55;;;1.90;;
43248;SDS011;29216;51.248;6.808;2024-03-02T10:44:02;4.15;;;2.00;;
43248;SDS011;29216;51.248;6.808;2024-03-02T10:46:28;2.42;;;1.80;;
43248;SDS011;29216;51.248;6.808;2024-03-02T10:48:55;3.65;;;1.60;;
43248;SDS011;29216;51.248;6.808;2024-03-02T10:51:24;4.13;;;1.80;;
43248;SDS011;29216;51.248;6.808;2024-03-02T10:53:50;2.47;;;2.00;;
43248;SDS011;29216;51.248;6.808;2024-03-02T10:56:18;4.75;;;2.10;;
43248;SDS011;29216;51.248;6.808;2024-03-02T10:58:50;4.07;;;2.20;;
43248;SDS011;29216;51.248;6.808;2024-03-02T11:01:16;2.35;;;1.90;;
43248;SDS011;29216;51.248;6.808;2024-03-02T11:03:42;4.22;;;1.70;;
43248;SDS011;29216;51.248;6.808;2024-03-02T11:06:10;2.40;;;1.88;;
43248;SDS011;29216;51.248;6.808;2024-03-02T11:08:37;2.45;;;2.00;;
43248;SDS011;29216;51.248;6.808;2024-03-02T11:11:11;4.03;;;1.90;;
43248;SDS011;29216;51.248;6.808;2024-03-02T11:13:40;4.03;;;2.00;;
43248;SDS011;29216;51.248;6.808;2024-03-02T11:16:17;5.13;;;1.98;;
43248;SDS011;29216;51.248;6.808;2024-03-02T11:18:47;4.63;;;2.10;;
43248;SDS011;29216;51.248;6.808;2024-03-02T11:21:14;3.00;;;2.00;;
43248;SDS011;29216;51.248;6.808;2024-03-02T11:23:41;4.70;;;1.88;;
43248;SDS011;29216;51.248;6.808;2024-03-02T11:26:22;2.95;;;2.03;;
43248;SDS011;29216;51.248;6.808;2024-03-02T11:28:49;2.90;;;2.05;;
43248;SDS011;29216;51.248;6.808;2024-03-02T11:31:15;4.70;;;2.22;;
43248;SDS011;29216;51.248;6.808;2024-03-02T11:33:41;3.85;;;2.08;;
43248;SDS011;29216;51.248;6.808;2024-03-02T11:36:08;3.67;;;2.00;;
43248;SDS011;29216;51.248;6.808;2024-03-02T11:38:35;3.15;;;2.10;;
43248;SDS011;29216;51.248;6.808;2024-03-02T11:41:02;3.60;;;2.35;;
43248;SDS011;29216;51.248;6.808;2024-03-02T11:43:29;5.22;;;2.50;;
43248;SDS011;29216;51.248;6.808;2024-03-02T11:46:03;2.78;;;1.85;;
43248;SDS011;29216;51.248;6.808;2024-03-02T11:48:32;2.10;;;1.88;;
43248;SDS011;29216;51.248;6.808;2024-03-02T11:50:58;4.80;;;2.20;;
43248;SDS011;29216;51.248;6.808;2024-03-02T11:53:25;3.92;;;2.00;;
43248;SDS011;29216;51.248;6.808;2024-03-02T11:55:52;3.60;;;2.10;;
43248;SDS011;29216;51.248;6.808;2024-03-02T11:58:21;3.58;;;2.05;;
43248;SDS011;29216;51.248;6.808;2024-03-02T12:00:52;5.88;;;2.30;;
43248;SDS011;29216;51.248;6.808;2024-03-02T12:03:20;3.60;;;2.05;;
43248;SDS011;29216;51.248;6.808;2024-03-02T12:05:51;3.63;;;1.95;;
43248;SDS011;29216;51.248;6.808;2024-03-02T12:08:18;2.88;;;1.75;;
43248;SDS011;29216;51.248;6.808;2024-03-02T12:10:55;3.20;;;2.10;;
43248;SDS011;29216;51.248;6.808;2024-03-02T12:13:22;3.85;;;1.90;;
43248;SDS011;29216;51.248;6.808;2024-03-02T12:15:48;3.03;;;2.05;;
43248;SDS011;29216;51.248;6.808;2024-03-02T12:18:18;4.97;;;2.00;;
43248;SDS011;29216;51.248;6.808;2024-03-02T12:20:45;3.17;;;2.00;;
43248;SDS011;29216;51.248;6.808;2024-03-02T12:23:11;4.00;;;2.13;;
43248;SDS011;29216;51.248;6.808;2024-03-02T12:25:37;5.22;;;2.10;;
43248;SDS011;29216;51.248;6.808;2024-03-02T12:28:03;2.83;;;2.13;;
43248;SDS011;29216;51.248;6.808;2024-03-02T12:30:30;3.42;;;1.90;;
43248;SDS011;29216;51.248;6.808;2024-03-02T12:32:57;3.90;;;2.03;;
43248;SDS011;29216;51.248;6.808;2024-03-02T12:35:24;4.32;;;1.80;;
43248;SDS011;29216;51.248;6.808;2024-03-02T12:37:51;1.95;;;1.63;;
43248;SDS011;29216;51.248;6.808;2024-03-02T12:40:18;2.15;;;1.95;;
43248;SDS011;29216;51.248;6.808;2024-03-02T12:42:45;2.65;;;2.08;;
43248;SDS011;29216;51.248;6.808;2024-03-02T12:45:11;2.03;;;1.73;;
43248;SDS011;29216;51.248;6.808;2024-03-02T12:47:39;2.72;;;1.90;;
43248;SDS011;29216;51.248;6.808;2024-03-02T12:50:05;1.70;;;1.60;;
43248;SDS011;29216;51.248;6.808;2024-03-02T12:52:32;2.58;;;1.83;;
43248;SDS011;29216;51.248;6.808;2024-03-02T12:54:59;2.85;;;1.73;;
43248;SDS011;29216;51.248;6.808;2024-03-02T12:57:26;2.50;;;1.70;;
43248;SDS011;29216;51.248;6.808;2024-03-02T12:59:54;2.00;;;1.90;;
43248;SDS011;29216;51.248;6.808;2024-03-02T13:02:22;1.85;;;1.65;;
43248;SDS011;29216;51.248;6.808;2024-03-02T13:04:52;4.80;;;1.65;;
43248;SDS011;29216;51.248;6.808;2024-03-02T13:07:22;1.92;;;1.80;;
43248;SDS011;29216;51.248;6.808;2024-03-02T13:09:49;2.60;;;1.55;;
43248;SDS011;29216;51.248;6.808;2024-03-02T13:12:16;2.90;;;1.80;;
43248;SDS011;29216;51.248;6.808;2024-03-02T13:14:42;3.83;;;1.83;;
43248;SDS011;29216;51.248;6.808;2024-03-02T13:17:09;2.95;;;1.80;;
43248;SDS011;29216;51.248;6.808;2024-03-02T13:19:35;1.98;;;1.42;;
43248;SDS011;29216;51.248;6.808;2024-03-02T13:22:01;1.95;;;1.80;;
43248;SDS011;29216;51.248;6.808;2024-03-02T13:24:29;4.28;;;1.75;;
43248;SDS011;29216;51.248;6.808;2024-03-02T13:26:56;3.85;;;1.80;;
43248;SDS011;29216;51.248;6.808;2024-03-02T13:29:23;1.77;;;1.40;;
43248;SDS011;29216;51.248;6.808;2024-03-02T13:31:49;1.50;;;1.40;;
43248;SDS011;29216;51.248;6.808;2024-03-02T13:34:16;1.50;;;1.40;;
43248;SDS011;29216;51.248;6.808;2024-03-02T13:36:42;2.20;;;1.45;;
43248;SDS011;29216;51.248;6.808;2024-03-02T13:39:08;2.15;;;1.80;;
43248;SDS011;29216;51.248;6.808;2024-03-02T13:41:35;1.60;;;1.50;;
43248;SDS011;29216;51.248;6.808;2024-03-02T13:44:02;3.40;;;1.60;;
43248;SDS011;29216;51.248;6.808;2024-03-02T13:46:28;1.83;;;1.55;;
43248;SDS011;29216;51.248;6.808;2024-03-02T13:48:54;1.77;;;1.67;;
43248;SDS011;29216;51.248;6.808;2024-03-02T13:51:21;2.88;;;1.40;;
43248;SDS011;29216;51.248;6.808;2024-03-02T13:53:47;2.95;;;1.40;;
43248;SDS011;29216;51.248;6.808;2024-03-02T13:56:13;2.80;;;1.50;;
43248;SDS011;29216;51.248;6.808;2024-03-02T13:58:40;1.92;;;1.65;;
43248;SDS011;29216;51.248;6.808;2024-03-02T14:01:06;3.00;;;1.50;;
43248;SDS011;29216;51.248;6.808;2024-03-02T14:03:32;1.83;;;1.42;;
43248;SDS011;29216;51.248;6.808;2024-03-02T14:05:58;2.78;;;1.73;;
43248;SDS011;29216;51.248;6.808;2024-03-02T14:08:24;1.40;;;1.30;;
43248;SDS011;29216;51.248;6.808;2024-03-02T14:10:50;1.95;;;1.73;;
43248;SDS011;29216;51.248;6.808;2024-03-02T14:13:16;2.05;;;1.63;;
43248;SDS011;29216;51.248;6.808;2024-03-02T14:15:43;4.07;;;1.70;;
43248;SDS011;29216;51.248;6.808;2024-03-02T14:18:09;1.90;;;1.50;;
43248;SDS011;29216;51.248;6.808;2024-03-02T14:20:35;1.55;;;1.45;;
43248;SDS011;29216;51.248;6.808;2024-03-02T14:23:02;1.65;;;1.50;;
43248;SDS011;29216;51.248;6.808;2024-03-02T14:25:29;4.88;;;1.73;;
43248;SDS011;29216;51.248;6.808;2024-03-02T14:27:58;1.77;;;1.67;;
43248;SDS011;29216;51.248;6.808;2024-03-02T14:30:24;2.13;;;1.70;;
43248;SDS011;29216;51.248;6.808;2024-03-02T14:32:50;2.78;;;1.63;;
43248;SDS011;29216;51.248;6.808;2024-03-02T14:35:17;1.70;;;1.60;;
43248;SDS011;29216;51.248;6.808;2024-03-02T14:37:43;1.42;;;1.30;;
43248;SDS011;29216;51.248;6.808;2024-03-02T14:40:10;1.40;;;1.30;;
43248;SDS011;29216;51.248;6.808;2024-03-02T14:42:37;2.28;;;1.50;;
43248;SDS011;29216;51.248;6.808;2024-03-02T14:45:03;2.42;;;1.52;;
43248;SDS011;29216;51.248;6.808;2024-03-02T14:47:31;3.50;;;1.50;;
43248;SDS011;29216;51.248;6.808;2024-03-02T14:49:58;2.58;;;1.65;;